Tom Frazier — WDD4376 — position and weather

sailwx.info

Track history (hours):
 
Tides and Currents Weather Stations Pressure Air Temp Water Temp Dewpoint Dewpoint Depression Visibility Wind Speed Wind Dir Waves Ship Positions

Tom Frazier

Owner: American Commercial Lines LLC, Jeffersonville, IN. More information available from US FCC via Universal Licensing System and Coast Guard Vessel Documentation Center.

Last reported at 2015-Oct-18 00:33 UTC. Time now 2016-Jul-01 17:17 UTC.
Position N 38°57' W 084°51'.
Warning: this ship's position is months out of date.

Length 48 m; draft 2.9 m.

MMSI: 367143910.

Date/timePositionNaut miles runAvg speedWind from/ knotsBaromVisibWave heightAir tempDewpointWater temp
2015-Oct-18 00:33N 38°57' W 084°51'6 4.6
2015-Oct-17 23:11N 39°03' W 084°53'5 4.9
2015-Oct-17 22:05N 39°06' W 084°49'3 5.1
2015-Oct-17 21:32N 39°08' W 084°46'4 4.2
2015-Oct-17 20:33N 39°06' W 084°41'0 0.1
2015-Oct-17 19:32N 39°06' W 084°41'0 0.0
2015-Oct-17 18:32N 39°06' W 084°41'0 0.0
2015-Oct-17 17:32N 39°06' W 084°41'0 0.0
2015-Oct-17 16:33N 39°06' W 084°41'0 0.0
2015-Oct-17 15:33N 39°06' W 084°41'0 0.0
2015-Oct-17 14:32N 39°06' W 084°41'0 0.0
2015-Oct-17 13:31N 39°06' W 084°41'1 1.4
2015-Oct-17 12:33N 39°06' W 084°40'5 4.6
2015-Oct-17 11:32N 39°05' W 084°34'5 4.7
2015-Oct-17 10:33N 39°07' W 084°28'5 4.9
2015-Oct-17 09:33N 39°03' W 084°25'5 5.3
2015-Oct-17 08:33N 39°01' W 084°19'5 5.3
2015-Oct-17 07:33N 38°56' W 084°16'5 5.3
2015-Oct-17 06:33N 38°51' W 084°14'4 3.6
2015-Oct-17 05:22N 38°48' W 084°10'  
2015-Oct-09 03:18N 38°39' W 083°21'27 3.8
2015-Oct-08 20:12N 38°46' W 083°54'8 4.5
2015-Oct-08 18:29N 38°46' W 084°04'4 4.5
2015-Oct-08 17:32N 38°48' W 084°09'1 1.1
2015-Oct-08 16:32N 38°48' W 084°11'1 0.9
2015-Oct-08 15:33N 38°48' W 084°12'4 3.6
2015-Oct-08 14:33N 38°51' W 084°14'4 4.4
2015-Oct-08 13:33N 38°55' W 084°16'2 2.0
2015-Oct-08 12:28N 38°57' W 084°17'0 0.0
2015-Oct-08 11:33N 38°57' W 084°17'0 0.0
2015-Oct-08 10:33N 38°57' W 084°17'0 0.0
2015-Oct-08 09:33N 38°57' W 084°17'4 3.7
2015-Oct-08 08:33N 39°01' W 084°19'4 4.4
2015-Oct-08 07:33N 39°03' W 084°24'4 4.2
2015-Oct-08 06:33N 39°06' W 084°26'3 3.5
2015-Oct-08 05:33N 39°06' W 084°31'2 2.2
2015-Oct-08 04:32N 39°05' W 084°34'3 3.4
2015-Oct-08 03:33N 39°05' W 084°38'5 4.5
2015-Oct-08 02:32N 39°07' W 084°42'3 3.4
2015-Oct-08 01:32N 39°07' W 084°47'  
Track history (hours):
 
Tides and Currents Weather Stations Pressure Air Temp Water Temp Dewpoint Dewpoint Depression Visibility Wind Speed Wind Dir Waves Ship Positions

Tom Frazier

Owner: American Commercial Lines LLC, Jeffersonville, IN. More information available from US FCC via Universal Licensing System and Coast Guard Vessel Documentation Center.

Last reported at 2015-Oct-18 00:33 UTC. Time now 2016-Jul-01 17:17 UTC.
Position N 38°57' W 084°51'.
Warning: this ship's position is months out of date.

Length 48 m; draft 2.9 m.

MMSI: 367143910.

Date/timePositionNaut miles runAvg speedWind from/ knotsBaromVisibWave heightAir tempDewpointWater temp
2015-Oct-18 00:33N 38°57' W 084°51'6 4.6
2015-Oct-17 23:11N 39°03' W 084°53'5 4.9
2015-Oct-17 22:05N 39°06' W 084°49'3 5.1
2015-Oct-17 21:32N 39°08' W 084°46'4 4.2
2015-Oct-17 20:33N 39°06' W 084°41'0 0.1
2015-Oct-17 19:32N 39°06' W 084°41'0 0.0
2015-Oct-17 18:32N 39°06' W 084°41'0 0.0
2015-Oct-17 17:32N 39°06' W 084°41'0 0.0
2015-Oct-17 16:33N 39°06' W 084°41'0 0.0
2015-Oct-17 15:33N 39°06' W 084°41'0 0.0
2015-Oct-17 14:32N 39°06' W 084°41'0 0.0
2015-Oct-17 13:31N 39°06' W 084°41'1 1.4
2015-Oct-17 12:33N 39°06' W 084°40'5 4.6
2015-Oct-17 11:32N 39°05' W 084°34'5 4.7
2015-Oct-17 10:33N 39°07' W 084°28'5 4.9
2015-Oct-17 09:33N 39°03' W 084°25'5 5.3
2015-Oct-17 08:33N 39°01' W 084°19'5 5.3
2015-Oct-17 07:33N 38°56' W 084°16'5 5.3
2015-Oct-17 06:33N 38°51' W 084°14'4 3.6
2015-Oct-17 05:22N 38°48' W 084°10'  
2015-Oct-09 03:18N 38°39' W 083°21'27 3.8
2015-Oct-08 20:12N 38°46' W 083°54'8 4.5
2015-Oct-08 18:29N 38°46' W 084°04'4 4.5
2015-Oct-08 17:32N 38°48' W 084°09'1 1.1
2015-Oct-08 16:32N 38°48' W 084°11'1 0.9
2015-Oct-08 15:33N 38°48' W 084°12'4 3.6
2015-Oct-08 14:33N 38°51' W 084°14'4 4.4
2015-Oct-08 13:33N 38°55' W 084°16'2 2.0
2015-Oct-08 12:28N 38°57' W 084°17'0 0.0
2015-Oct-08 11:33N 38°57' W 084°17'0 0.0
2015-Oct-08 10:33N 38°57' W 084°17'0 0.0
2015-Oct-08 09:33N 38°57' W 084°17'4 3.7
2015-Oct-08 08:33N 39°01' W 084°19'4 4.4
2015-Oct-08 07:33N 39°03' W 084°24'4 4.2
2015-Oct-08 06:33N 39°06' W 084°26'3 3.5
2015-Oct-08 05:33N 39°06' W 084°31'2 2.2
2015-Oct-08 04:32N 39°05' W 084°34'3 3.4
2015-Oct-08 03:33N 39°05' W 084°38'5 4.5
2015-Oct-08 02:32N 39°07' W 084°42'3 3.4
2015-Oct-08 01:32N 39°07' W 084°47'  

Dump ship's entire track history